Time;durP1;ratioP1;P1;durP2;ratioP2;P2;SDS_P1;SDS_P2;PMS_P1;PMS_P2;Temp;Humidity;BMP_temperature;BMP_pressure;BME280_temperature;BME280_humidity;BME280_pressure;Samples;Min_cycle;Max_cycle;Signal;HPM_P1;HPM_P2
2021/05/20 00:00:25;;;;;;;;;;;;;;;9.96;85.53;94934.30;1745773;82;20172;-68
2021/05/20 00:02:53;;;;;;;;;;;;;;;10.05;85.08;94933.63;1745547;82;20141;-68
2021/05/20 00:05:20;;;;;;;;;;;;;;;10.07;84.80;94933.14;1723362;82;20156;-68
2021/05/20 00:07:46;;;;;;;;;;;;;;;10.15;84.65;94929.84;1745591;82;20220;-68
2021/05/20 00:10:14;;;;;;;;;;;;;;;10.21;84.63;94931.00;1745784;82;20168;-68
2021/05/20 00:12:40;;;;;;;;;;;;;;;10.13;84.07;94922.42;1745624;82;20136;-68
2021/05/20 00:15:08;;;;;;;;;;;;;;;10.02;84.48;94920.55;1745891;82;20176;-68
2021/05/20 00:17:34;;;;;;;;;;;;;;;9.97;84.35;94921.98;1745521;82;20160;-68
2021/05/20 00:20:01;;;;;;;;;;;;;;;9.77;85.70;94925.14;1745804;82;20160;-68
2021/05/20 00:22:29;;;;;;;;;;;;;;;9.74;85.79;94924.77;1745599;82;20204;-68
2021/05/20 00:24:56;;;;;;;;;;;;;;;9.80;85.91;94921.56;1745570;82;20144;-68
2021/05/20 00:27:23;;;;;;;;;;;;;;;9.93;85.74;94923.84;1745646;82;20168;-68
2021/05/20 00:29:49;;;;;;;;;;;;;;;10.06;85.24;94923.52;1745692;82;20160;-68
2021/05/20 00:32:19;;;;;;;;;;;;;;;10.10;85.01;94923.83;1745587;82;20458;-68
2021/05/20 00:34:45;;;;;;;;;;;;;;;10.11;84.71;94922.48;1745706;82;20461;-68
2021/05/20 00:37:11;;;;;;;;;;;;;;;10.11;84.73;94925.11;1745581;82;20156;-68
2021/05/20 00:39:38;;;;;;;;;;;;;;;10.18;84.50;94917.45;1745637;82;20136;-68
2021/05/20 00:42:08;;;;;;;;;;;;;;;10.22;84.19;94918.22;1745634;82;20477;-68
2021/05/20 00:44:57;;;;;;;;;;;;;;;10.15;83.99;94920.61;1745699;82;20216;-68
2021/05/20 00:47:26;;;;;;;;;;;;;;;10.06;83.87;94923.52;1745484;82;20132;-68
2021/05/20 00:49:54;;;;;;;;;;;;;;;10.01;84.27;94917.52;1745866;82;20164;-68
2021/05/20 00:52:20;;;;;;;;;;;;;;;10.06;84.61;94912.52;1750087;82;20143;-68
2021/05/20 00:54:50;;;;;;;;;;;;;;;10.10;84.54;94912.83;1750380;82;20155;-68
2021/05/20 00:57:18;;;;;;;;;;;;;;;10.11;84.37;94915.03;1750445;82;20152;-68
2021/05/20 00:59:45;;;;;;;;;;;;;;;10.11;84.26;94905.34;1750628;82;20152;-68
2021/05/20 01:02:12;;;;;;;;;;;;;;;10.10;83.80;94901.42;1750538;82;20172;-68
2021/05/20 01:04:39;;;;;;;;;;;;;;;10.08;83.91;94898.84;1750698;81;20156;-68
2021/05/20 01:07:05;;;;;;;;;;;;;;;10.14;84.07;94905.25;1750057;82;20156;-68
2021/05/20 01:09:33;;;;;;;;;;;;;;;10.19;84.09;94896.77;1750651;82;20168;-68
2021/05/20 01:12:00;;;;;;;;;;;;;;;10.29;83.87;94891.27;1750425;82;20181;-68
2021/05/20 01:14:27;;;;;;;;;;;;;;;10.31;83.32;94892.95;1750513;82;20166;-68
2021/05/20 01:16:53;;;;;;;;;;;;;;;10.24;82.95;94894.45;1750678;82;20180;-68
2021/05/20 01:19:19;;;;;;;;;;;;;;;10.18;83.08;94888.91;1750691;82;20156;-68
2021/05/20 01:21:46;;;;;;;;;;;;;;;10.08;83.15;94883.03;1750267;82;20156;-68
2021/05/20 01:24:12;;;;;;;;;;;;;;;9.95;84.01;94891.73;1750335;82;20159;-68
2021/05/20 01:26:40;;;;;;;;;;;;;;;9.86;83.95;94888.48;1727769;82;20204;-68
2021/05/20 01:29:07;;;;;;;;;;;;;;;9.86;84.21;94883.22;1750421;82;20176;-68
2021/05/20 01:31:34;;;;;;;;;;;;;;;9.85;84.40;94885.41;1750535;82;20490;-68
2021/05/20 01:34:00;;;;;;;;;;;;;;;9.83;84.78;94880.21;1750646;82;20163;-68
2021/05/20 01:36:27;;;;;;;;;;;;;;;9.80;85.12;94882.90;1727369;82;20144;-68
2021/05/20 01:38:59;;;;;;;;;;;;;;;9.82;85.46;94883.73;1750482;82;20548;-68
2021/05/20 01:41:25;;;;;;;;;;;;;;;9.80;85.19;94881.58;1750643;82;20160;-68
2021/05/20 01:43:51;;;;;;;;;;;;;;;9.82;85.39;94880.23;1750513;82;20496;-68
2021/05/20 01:46:19;;;;;;;;;;;;;;;9.78;85.64;94883.42;1750341;82;20163;-68
2021/05/20 01:48:47;;;;;;;;;;;;;;;9.78;85.67;94876.84;1750454;81;20156;-68
2021/05/20 01:51:16;;;;;;;;;;;;;;;9.80;85.50;94876.31;1748994;82;20500;-68
2021/05/20 01:53:44;;;;;;;;;;;;;;;9.80;85.45;94865.78;1745544;82;20488;-68
2021/05/20 01:56:13;;;;;;;;;;;;;;;9.74;86.20;94869.91;1745817;82;20156;-68
2021/05/20 01:58:39;;;;;;;;;;;;;;;9.69;86.34;94862.58;1745783;82;20231;-68
2021/05/20 02:01:06;;;;;;;;;;;;;;;9.67;86.11;94863.07;1745690;82;20160;-68
2021/05/20 02:03:33;;;;;;;;;;;;;;;9.62;86.40;94862.33;1745645;82;20159;-68
2021/05/20 02:06:03;;;;;;;;;;;;;;;9.55;86.76;94864.28;1745760;82;20446;-68
2021/05/20 02:08:30;;;;;;;;;;;;;;;9.52;87.06;94857.75;1745531;82;20140;-68
2021/05/20 02:10:57;;;;;;;;;;;;;;;9.52;87.00;94860.39;1745612;82;20156;-68
2021/05/20 02:13:24;;;;;;;;;;;;;;;9.53;86.85;94856.41;1745691;82;20163;-68
2021/05/20 02:15:50;;;;;;;;;;;;;;;9.55;86.94;94855.06;1745667;82;20508;-68
2021/05/20 02:18:17;;;;;;;;;;;;;;;9.56;87.39;94859.41;1745692;82;20164;-67
2021/05/20 02:20:44;;;;;;;;;;;;;;;9.57;87.19;94856.32;1745748;82;20497;-68
2021/05/20 02:23:11;;;;;;;;;;;;;;;9.56;87.24;94854.61;1745643;82;20215;-68
2021/05/20 02:25:38;;;;;;;;;;;;;;;9.59;86.87;94857.15;1745599;82;20152;-68
2021/05/20 02:28:05;;;;;;;;;;;;;;;9.60;87.11;94854.91;1745639;82;20231;-68
2021/05/20 02:30:31;;;;;;;;;;;;;;;9.65;87.29;94858.29;1745829;82;20132;-68
2021/05/20 02:32:58;;;;;;;;;;;;;;;9.68;87.59;94856.45;1745467;82;20509;-68
2021/05/20 02:35:24;;;;;;;;;;;;;;;9.67;87.20;94852.08;1745600;82;20136;-68
2021/05/20 02:37:51;;;;;;;;;;;;;;;9.70;87.24;94853.34;1745471;82;20156;-68
2021/05/20 02:40:18;;;;;;;;;;;;;;;9.78;86.98;94854.87;1745627;82;20184;-68
2021/05/20 02:42:45;;;;;;;;;;;;;;;9.80;87.01;94851.75;1745752;82;20545;-68
2021/05/20 02:45:14;;;;;;;;;;;;;;;9.83;87.03;94856.50;1745610;82;20209;-68
2021/05/20 02:47:44;;;;;;;;;;;;;;;9.85;86.95;94853.80;1745739;82;20187;-68
2021/05/20 02:50:11;;;;;;;;;;;;;;;9.88;86.92;94855.05;1745854;82;20136;-68
2021/05/20 02:52:38;;;;;;;;;;;;;;;9.93;86.70;94848.74;1744801;82;20489;-69
2021/05/20 02:55:07;;;;;;;;;;;;;;;10.04;86.49;94849.75;1745479;82;20148;-68
2021/05/20 02:57:34;;;;;;;;;;;;;;;10.17;86.10;94851.58;1745563;82;20529;-68
2021/05/20 03:00:00;;;;;;;;;;;;;;;10.21;85.60;94852.38;1745309;82;20169;-68
2021/05/20 03:02:27;;;;;;;;;;;;;;;10.25;85.26;94856.63;1745560;82;20187;-68
2021/05/20 03:04:53;;;;;;;;;;;;;;;10.23;85.08;94857.13;1745369;82;20513;-68
2021/05/20 03:07:20;;;;;;;;;;;;;;;10.18;85.22;94858.14;1745316;82;20152;-68
2021/05/20 03:09:46;;;;;;;;;;;;;;;10.27;85.24;94854.81;1745418;82;20461;-68
2021/05/20 03:12:12;;;;;;;;;;;;;;;10.35;84.94;94861.61;1745519;82;20178;-68
2021/05/20 03:14:38;;;;;;;;;;;;;;;10.37;84.86;94866.85;1745324;82;20481;-68
2021/05/20 03:17:11;;;;;;;;;;;;;;;10.39;84.64;94864.58;1745315;82;20144;-68
2021/05/20 03:19:33;;;;;;;;;;;;;;;10.44;84.56;94857.00;1744810;82;20159;-68
2021/05/20 03:21:59;;;;;;;;;;;;;;;10.43;84.22;94868.44;1745281;82;20144;-68
2021/05/20 03:24:25;;;;;;;;;;;;;;;10.32;84.67;94864.34;1745265;82;20152;-68
2021/05/20 03:26:51;;;;;;;;;;;;;;;10.23;84.91;94864.60;1745387;82;20187;-68
2021/05/20 03:29:17;;;;;;;;;;;;;;;10.17;85.13;94865.62;1745415;82;20148;-68
2021/05/20 03:31:44;;;;;;;;;;;;;;;10.15;84.92;94866.14;1745519;82;20178;-68
2021/05/20 03:34:11;;;;;;;;;;;;;;;10.10;84.93;94868.02;1745276;82;20493;-68
2021/05/20 03:36:37;;;;;;;;;;;;;;;10.22;85.00;94870.77;1745328;82;20180;-68
2021/05/20 03:39:04;;;;;;;;;;;;;;;10.31;84.84;94872.32;1745303;82;20140;-68
2021/05/20 03:41:30;;;;;;;;;;;;;;;10.45;84.77;94872.75;1745168;82;20481;-68
2021/05/20 03:43:56;;;;;;;;;;;;;;;10.49;84.24;94876.19;1745570;82;20125;-68
2021/05/20 03:46:22;;;;;;;;;;;;;;;10.50;84.18;94877.44;1745303;82;20544;-66
2021/05/20 03:48:48;;;;;;;;;;;;;;;10.56;84.10;94880.38;1745325;82;20172;-65
2021/05/20 03:51:15;;;;;;;;;;;;;;;10.59;83.94;94881.13;1745509;82;20164;-66
2021/05/20 03:53:41;;;;;;;;;;;;;;;10.54;84.16;94885.68;1745221;82;20155;-66
2021/05/20 03:56:07;;;;;;;;;;;;;;;10.53;83.95;94886.61;1747920;82;20196;-66
2021/05/20 03:58:33;;;;;;;;;;;;;;;10.45;84.31;94888.58;1750335;82;20497;-67
2021/05/20 04:01:00;;;;;;;;;;;;;;;10.42;84.55;94892.63;1750601;82;20164;-66
2021/05/20 04:03:29;;;;;;;;;;;;;;;10.46;84.65;94890.76;1750104;82;20136;-67
2021/05/20 04:05:56;;;;;;;;;;;;;;;10.55;84.43;94889.17;1750468;82;20157;-67
2021/05/20 04:08:23;;;;;;;;;;;;;;;10.62;84.14;94894.69;1750253;82;20172;-67
2021/05/20 04:10:51;;;;;;;;;;;;;;;10.54;84.12;94892.73;1750361;82;20167;-67
2021/05/20 04:13:29;;;;;;;;;;;;;;;10.48;84.10;94893.80;1750406;82;20155;-67
2021/05/20 04:15:56;;;;;;;;;;;;;;;10.41;84.06;94889.60;1750232;82;20164;-67
2021/05/20 04:18:23;;;;;;;;;;;;;;;10.42;84.27;94897.05;1750536;82;20152;-67
2021/05/20 04:20:51;;;;;;;;;;;;;;;10.38;84.43;94893.63;1750519;82;20159;-67
2021/05/20 04:23:17;;;;;;;;;;;;;;;10.34;84.36;94892.00;1750234;82;20317;-67
2021/05/20 04:25:45;;;;;;;;;;;;;;;10.31;84.31;94885.05;1750727;82;20168;-67
2021/05/20 04:28:12;;;;;;;;;;;;;;;10.23;84.56;94890.08;1750747;82;20156;-67
2021/05/20 04:30:39;;;;;;;;;;;;;;;10.18;84.33;94887.59;1750473;82;20176;-67
2021/05/20 04:33:06;;;;;;;;;;;;;;;10.15;84.51;94885.91;1750690;82;20175;-67
2021/05/20 04:35:33;;;;;;;;;;;;;;;10.12;84.57;94888.61;1750576;82;20481;-67
2021/05/20 04:38:00;;;;;;;;;;;;;;;10.12;84.59;94890.39;1750606;82;20128;-67
2021/05/20 04:40:27;;;;;;;;;;;;;;;10.09;84.89;94890.48;1750462;82;20474;-67
2021/05/20 04:42:54;;;;;;;;;;;;;;;10.06;84.90;94887.48;1750617;82;20160;-67
2021/05/20 04:45:21;;;;;;;;;;;;;;;10.02;85.32;94892.88;1750323;82;20156;-67
2021/05/20 04:47:47;;;;;;;;;;;;;;;9.99;85.72;94891.19;1756789;79;20276;-67
2021/05/20 04:50:15;;;;;;;;;;;;;;;10.01;85.89;94893.33;1768658;81;20144;-66
2021/05/20 04:52:42;;;;;;;;;;;;;;;10.00;86.42;94894.22;1780912;80;20143;-69
2021/05/20 04:55:10;;;;;;;;;;;;;;;10.04;86.36;94900.29;1752142;80;20185;-68
2021/05/20 04:57:36;;;;;;;;;;;;;;;10.07;86.31;94893.15;1729222;82;20516;-65
2021/05/20 05:00:05;;;;;;;;;;;;;;;10.11;86.74;94893.95;1750346;82;20210;-67
2021/05/20 05:02:32;;;;;;;;;;;;;;;10.15;86.49;94895.14;1750506;82;20138;-70
2021/05/20 05:04:58;;;;;;;;;;;;;;;10.22;86.33;94897.59;1750590;82;20194;-79
2021/05/20 05:07:24;;;;;;;;;;;;;;;10.30;86.22;94900.89;1756199;82;20499;-65
2021/05/20 05:09:51;;;;;;;;;;;;;;;10.29;86.04;94894.77;1756317;82;20193;-66
2021/05/20 05:12:17;;;;;;;;;;;;;;;10.30;86.16;94901.75;1756282;82;20142;-64
2021/05/20 05:14:44;;;;;;;;;;;;;;;10.35;86.32;94899.84;1756355;82;20170;-64
2021/05/20 05:17:11;;;;;;;;;;;;;;;10.41;86.38;94901.47;1756581;82;20162;-65
2021/05/20 05:19:37;;;;;;;;;;;;;;;10.47;86.19;94901.28;1756262;82;20153;-64
2021/05/20 05:22:04;;;;;;;;;;;;;;;10.49;86.21;94900.78;1756304;82;20149;-66
2021/05/20 05:24:31;;;;;;;;;;;;;;;10.52;85.99;94896.73;1756290;82;20186;-65
2021/05/20 05:26:59;;;;;;;;;;;;;;;10.55;85.61;94900.59;1755864;82;20162;-64
2021/05/20 05:29:26;;;;;;;;;;;;;;;10.64;85.53;94904.74;1756384;82;20186;-67
2021/05/20 05:31:53;;;;;;;;;;;;;;;10.70;84.98;94902.37;1756430;82;20185;-66
2021/05/20 05:34:20;;;;;;;;;;;;;;;10.64;84.75;94899.93;1756355;82;20165;-66
2021/05/20 05:36:46;;;;;;;;;;;;;;;10.61;85.09;94907.48;1756461;82;20478;-65
2021/05/20 05:39:13;;;;;;;;;;;;;;;10.64;84.95;94903.42;1756382;82;20165;-67
2021/05/20 05:41:40;;;;;;;;;;;;;;;10.72;84.86;94906.69;1756092;82;20178;-67
2021/05/20 05:44:07;;;;;;;;;;;;;;;10.77;84.64;94899.95;1750437;82;20584;-66
2021/05/20 05:46:34;;;;;;;;;;;;;;;10.79;84.59;94908.23;1725703;82;20152;-67
2021/05/20 05:49:12;;;;;;;;;;;;;;;10.72;84.40;94906.69;1753286;82;20485;-68
2021/05/20 05:51:31;;;;;;;;;;;;;;;10.71;84.42;94905.41;1751774;82;20187;-68
2021/05/20 05:53:57;;;;;;;;;;;;;;;10.77;84.44;94906.09;1748993;82;20203;-66
2021/05/20 05:56:23;;;;;;;;;;;;;;;10.85;84.36;94906.32;1750573;82;20144;-70
2021/05/20 05:58:49;;;;;;;;;;;;;;;10.94;84.23;94910.86;1750488;82;20172;-69
2021/05/20 06:01:17;;;;;;;;;;;;;;;11.02;84.00;94906.20;1750409;82;20536;-68
2021/05/20 06:03:43;;;;;;;;;;;;;;;11.04;83.45;94904.38;1750416;82;20136;-67
2021/05/20 06:06:11;;;;;;;;;;;;;;;11.01;83.10;94904.48;1750454;82;20485;-65
2021/05/20 06:08:37;;;;;;;;;;;;;;;10.95;83.29;94903.80;1750307;82;20155;-65
2021/05/20 06:11:03;;;;;;;;;;;;;;;11.02;83.81;94908.84;1750457;82;20127;-69
2021/05/20 06:13:29;;;;;;;;;;;;;;;11.06;83.48;94906.95;1767845;81;20160;-76
2021/05/20 06:15:56;;;;;;;;;;;;;;;11.02;83.46;94910.63;1781091;81;20449;-70
2021/05/20 06:18:22;;;;;;;;;;;;;;;11.03;83.06;94914.52;1781141;80;20203;-71
2021/05/20 06:20:50;;;;;;;;;;;;;;;11.04;83.04;94908.34;1766609;81;20506;-77
2021/05/20 06:23:16;;;;;;;;;;;;;;;11.04;82.66;94910.98;1756201;82;20134;-72
2021/05/20 06:25:45;;;;;;;;;;;;;;;11.11;82.48;94910.31;1756317;82;20178;-69
2021/05/20 06:28:11;;;;;;;;;;;;;;;11.11;82.38;94910.31;1756295;82;20154;-70
2021/05/20 06:30:38;;;;;;;;;;;;;;;11.17;82.56;94915.88;1756118;82;20193;-70
2021/05/20 06:33:04;;;;;;;;;;;;;;;11.17;82.45;94913.24;1756239;82;20499;-69
2021/05/20 06:35:31;;;;;;;;;;;;;;;11.15;82.10;94921.20;1756344;82;20142;-71
2021/05/20 06:37:57;;;;;;;;;;;;;;;11.14;82.04;94917.30;1732840;82;20173;-70
2021/05/20 06:40:23;;;;;;;;;;;;;;;11.18;81.89;94924.20;1732944;82;20507;-70
2021/05/20 06:42:50;;;;;;;;;;;;;;;11.16;81.75;94920.30;1753173;82;20159;-73
2021/05/20 06:45:16;;;;;;;;;;;;;;;11.13;82.21;94924.34;1750436;82;20199;-70
2021/05/20 06:47:42;;;;;;;;;;;;;;;11.14;82.31;94925.23;1750475;82;20140;-71
2021/05/20 06:50:10;;;;;;;;;;;;;;;11.13;81.92;94926.98;1750471;82;20160;-67
2021/05/20 06:52:37;;;;;;;;;;;;;;;11.12;82.22;94931.00;1750272;82;20147;-71
2021/05/20 06:55:04;;;;;;;;;;;;;;;11.05;82.09;94929.86;1750577;82;20140;-73
2021/05/20 06:59:56;;;;;;;;;;;;;;;10.94;82.70;94929.34;1767083;81;20468;-78
2021/05/20 07:00:01;;;;;;;;;;;;;;;10.87;83.07;94938.35;1778070;81;20155;-73
2021/05/20 07:02:29;;;;;;;;;;;;;;;10.83;83.45;94936.27;1781253;80;20184;-66
2021/05/20 07:04:56;;;;;;;;;;;;;;;10.79;83.01;94934.63;1781290;81;20160;-70
2021/05/20 07:07:23;;;;;;;;;;;;;;;10.77;83.26;94935.12;1781159;80;20124;-69
2021/05/20 07:09:50;;;;;;;;;;;;;;;10.74;83.47;94937.00;1767845;80;20171;-73
2021/05/20 07:12:16;;;;;;;;;;;;;;;10.75;83.62;94938.25;1784779;80;21102;-74
2021/05/20 07:14:43;;;;;;;;;;;;;;;10.69;84.12;94938.91;1780479;80;20160;-70
2021/05/20 07:17:11;;;;;;;;;;;;;;;10.68;83.77;94946.39;1773833;81;20140;-70
2021/05/20 07:19:38;;;;;;;;;;;;;;;10.66;83.79;94948.20;1773394;81;20489;-75
2021/05/20 07:22:05;;;;;;;;;;;;;;;10.63;83.89;94946.52;1773976;80;20179;-69
2021/05/20 07:24:32;;;;;;;;;;;;;;;10.59;83.87;94947.55;1773293;81;20231;-75
2021/05/20 07:26:58;;;;;;;;;;;;;;;10.59;84.05;94951.50;1773844;81;20171;-73
2021/05/20 07:29:24;;;;;;;;;;;;;;;10.55;83.90;94941.47;1773938;80;20469;-73
2021/05/20 07:31:51;;;;;;;;;;;;;;;10.56;84.65;94948.95;1773986;80;20148;-70
2021/05/20 07:34:17;;;;;;;;;;;;;;;10.58;84.98;94944.48;1773819;81;20140;-76
2021/05/20 07:36:44;;;;;;;;;;;;;;;10.63;84.57;94947.84;1773787;81;20148;-70
2021/05/20 07:39:10;;;;;;;;;;;;;;;10.65;84.50;94947.35;1773919;81;20132;-70
2021/05/20 07:41:37;;;;;;;;;;;;;;;10.70;84.83;94952.50;1772805;80;20492;-72
2021/05/20 07:44:04;;;;;;;;;;;;;;;10.73;84.99;94949.30;1739044;82;20150;-71
2021/05/20 07:46:30;;;;;;;;;;;;;;;10.80;84.63;94949.53;1739191;82;20190;-73
2021/05/20 07:48:57;;;;;;;;;;;;;;;10.86;84.23;94952.90;1739139;83;20495;-72
2021/05/20 07:51:23;;;;;;;;;;;;;;;10.85;83.78;94959.10;1739062;83;20158;-74
2021/05/20 07:53:49;;;;;;;;;;;;;;;10.82;83.89;94960.91;1738783;82;20503;-76
2021/05/20 07:56:16;;;;;;;;;;;;;;;10.85;84.51;94961.73;1738692;82;20162;-80
2021/05/20 07:58:42;;;;;;;;;;;;;;;10.91;84.44;94967.71;1738833;82;20492;-77
2021/05/20 08:01:09;;;;;;;;;;;;;;;10.94;83.83;94972.89;1738827;83;20146;-71
2021/05/20 08:03:49;;;;;;;;;;;;;;;10.96;83.84;94967.55;1738817;82;20167;-74
2021/05/20 08:06:23;;;;;;;;;;;;;;;10.99;83.87;94973.62;1741805;82;20159;-75
2021/05/20 08:11:16;;;;;;;;;;;;;;;10.92;83.10;94976.03;1743663;82;20162;-74
2021/05/20 08:13:42;;;;;;;;;;;;;;;10.87;83.40;94976.63;1741063;81;20170;-73
2021/05/20 08:16:10;;;;;;;;;;;;;;;10.83;83.08;94990.80;1744364;81;20154;-63
2021/05/20 08:18:37;;;;;;;;;;;;;;;10.86;83.09;94977.55;1740305;81;20475;-61
2021/05/20 08:21:05;;;;;;;;;;;;;;;10.86;82.92;94987.20;1743694;82;20166;-62
2021/05/20 08:23:32;;;;;;;;;;;;;;;10.83;83.18;94989.48;1743755;81;20155;-62
2021/05/20 08:26:00;;;;;;;;;;;;;;;10.86;82.88;94986.78;1751084;82;20138;-62
2021/05/20 08:28:26;;;;;;;;;;;;;;;10.94;82.77;94994.47;1750970;82;20185;-63
2021/05/20 08:30:53;;;;;;;;;;;;;;;10.97;82.38;94999.65;1751032;82;20193;-62
2021/05/20 08:33:20;;;;;;;;;;;;;;;10.94;82.31;94994.47;1751200;82;20467;-65
2021/05/20 08:35:46;;;;;;;;;;;;;;;10.98;82.62;95000.91;1751016;82;20154;-62
2021/05/20 08:38:14;;;;;;;;;;;;;;;10.94;82.79;95003.71;1721308;82;20184;-62
2021/05/20 08:40:41;;;;;;;;;;;;;;;10.88;82.36;95002.09;1714391;84;20180;-62
2021/05/20 08:43:08;;;;;;;;;;;;;;;10.89;82.63;95005.16;1714076;84;20536;-61
2021/05/20 08:45:35;;;;;;;;;;;;;;;10.93;82.77;95005.45;1714226;84;20160;-61
2021/05/20 08:48:02;;;;;;;;;;;;;;;10.87;83.19;95008.75;1714288;84;20175;-61
2021/05/20 08:50:31;;;;;;;;;;;;;;;10.87;82.78;95011.39;1714175;84;20172;-61
2021/05/20 08:52:58;;;;;;;;;;;;;;;10.79;83.20;95010.30;1717583;82;20172;-61
2021/05/20 08:55:34;;;;;;;;;;;;;;;10.73;82.98;95015.73;1743165;82;20224;-61
2021/05/20 08:58:02;;;;;;;;;;;;;;;10.62;83.03;95013.41;1743218;82;20174;-62
2021/05/20 09:00:30;;;;;;;;;;;;;;;10.64;83.35;95017.33;1743390;82;20142;-62
2021/05/20 09:03:11;;;;;;;;;;;;;;;10.63;83.50;95019.53;1743370;82;20503;-62
2021/05/20 09:05:38;;;;;;;;;;;;;;;10.68;84.04;95020.27;1743289;82;20220;-61
2021/05/20 09:08:10;;;;;;;;;;;;;;;10.70;83.52;95025.06;1743353;82;20174;-61
2021/05/20 09:10:34;;;;;;;;;;;;;;;10.69;83.53;95032.11;1742885;82;20126;-62
2021/05/20 09:13:03;;;;;;;;;;;;;;;10.71;83.71;95034.69;1743234;82;20134;-61
2021/05/20 09:15:35;;;;;;;;;;;;;;;10.69;83.36;95028.16;1743394;82;20146;-61
2021/05/20 09:18:05;;;;;;;;;;;;;;;10.62;83.22;95030.55;1743470;82;20131;-61
2021/05/20 09:20:32;;;;;;;;;;;;;;;10.65;83.25;95040.16;1742662;82;20487;-61
2021/05/20 09:23:11;;;;;;;;;;;;;;;10.65;83.79;95047.61;1720407;82;20174;-61
2021/05/20 09:25:40;;;;;;;;;;;;;;;10.58;83.22;95039.44;1743098;82;20190;-61
2021/05/20 09:28:08;;;;;;;;;;;;;;;10.63;83.59;95041.96;1743503;82;20173;-61
2021/05/20 09:30:37;;;;;;;;;;;;;;;10.64;83.55;95049.84;1743782;82;20166;-61
2021/05/20 09:33:11;;;;;;;;;;;;;;;10.67;83.44;95051.53;1743311;82;20159;-62
2021/05/20 09:35:39;;;;;;;;;;;;;;;10.66;83.27;95049.36;1743486;82;20158;-61
2021/05/20 09:38:11;;;;;;;;;;;;;;;10.69;83.90;95055.00;1743314;82;20169;-62
2021/05/20 09:40:48;;;;;;;;;;;;;;;10.78;84.03;95052.95;1743148;82;20162;-61
2021/05/20 09:43:19;;;;;;;;;;;;;;;10.77;83.17;95053.00;1743324;82;20178;-61
2021/05/20 09:45:47;;;;;;;;;;;;;;;10.83;83.93;95055.03;1743120;82;20146;-61
2021/05/20 09:48:13;;;;;;;;;;;;;;;10.93;82.84;95056.93;1743515;82;20174;-62
2021/05/20 09:50:47;;;;;;;;;;;;;;;11.01;83.02;95063.30;1743190;82;20147;-62
2021/05/20 09:53:16;;;;;;;;;;;;;;;10.86;82.83;95058.03;1742876;82;20170;-62
2021/05/20 09:55:53;;;;;;;;;;;;;;;10.83;82.79;95068.23;1749611;82;20197;-61
2021/05/20 09:58:26;;;;;;;;;;;;;;;10.81;82.76;95071.81;1750419;82;20533;-61
2021/05/20 10:00:55;;;;;;;;;;;;;;;10.71;82.62;95070.31;1750370;82;20493;-61
2021/05/20 10:03:22;;;;;;;;;;;;;;;10.71;83.53;95084.39;1750278;81;20182;-62
2021/05/20 10:05:56;;;;;;;;;;;;;;;10.82;82.81;95082.77;1750095;82;20151;-61
2021/05/20 10:08:23;;;;;;;;;;;;;;;10.86;83.14;95080.47;1750526;82;20166;-62
2021/05/20 10:10:55;;;;;;;;;;;;;;;11.01;83.16;95069.91;1750167;82;20178;-61
2021/05/20 10:13:24;;;;;;;;;;;;;;;11.24;83.08;95068.80;1750493;81;20150;-61
2021/05/20 10:15:53;;;;;;;;;;;;;;;11.40;82.67;95070.52;1750165;82;20158;-61
2021/05/20 10:18:21;;;;;;;;;;;;;;;11.47;82.24;95069.89;1750192;82;20230;-62
2021/05/20 10:20:50;;;;;;;;;;;;;;;11.53;81.10;95073.66;1750545;82;20155;-62
2021/05/20 10:23:19;;;;;;;;;;;;;;;11.62;81.82;95076.02;1749911;82;20127;-61
2021/05/20 10:25:48;;;;;;;;;;;;;;;11.61;80.25;95066.34;1750170;82;20162;-62
2021/05/20 10:28:16;;;;;;;;;;;;;;;11.57;80.15;95070.02;1750402;82;20206;-61
2021/05/20 10:30:45;;;;;;;;;;;;;;;11.60;80.71;95071.23;1749837;82;20154;-62
2021/05/20 10:33:13;;;;;;;;;;;;;;;11.67;80.48;95073.24;1750309;82;20214;-61
2021/05/20 10:35:43;;;;;;;;;;;;;;;11.65;80.04;95074.59;1750329;82;20174;-62
2021/05/20 10:38:11;;;;;;;;;;;;;;;11.68;79.72;95077.60;1749905;82;20146;-62
2021/05/20 10:40:38;;;;;;;;;;;;;;;11.58;79.01;95080.13;1748932;82;20252;-61
2021/05/20 10:43:10;;;;;;;;;;;;;;;11.59;79.20;95081.84;1750110;82;20162;-61
2021/05/20 10:45:42;;;;;;;;;;;;;;;11.60;79.60;95082.27;1750418;82;20206;-61
2021/05/20 10:48:14;;;;;;;;;;;;;;;11.66;79.35;95085.56;1749806;82;20193;-61
2021/05/20 10:50:54;;;;;;;;;;;;;;;11.69;79.31;95084.60;1749054;82;20131;-61
2021/05/20 10:53:44;;;;;;;;;;;;;;;11.66;78.42;95097.92;1749261;82;20154;-62
2021/05/20 10:56:16;;;;;;;;;;;;;;;11.55;78.25;95093.44;1735904;82;20178;-62
2021/05/20 10:58:46;;;;;;;;;;;;;;;11.53;77.82;95101.86;1738666;82;20146;-61
2021/05/20 11:01:22;;;;;;;;;;;;;;;11.40;77.78;95100.04;1743689;82;20162;-62
2021/05/20 11:03:53;;;;;;;;;;;;;;;11.36;78.27;95106.31;1743284;82;20186;-61
2021/05/20 11:06:22;;;;;;;;;;;;;;;11.43;78.92;95113.15;1743285;82;20229;-62
2021/05/20 11:08:51;;;;;;;;;;;;;;;11.54;79.78;95111.07;1743343;82;20174;-62
2021/05/20 11:11:24;;;;;;;;;;;;;;;11.70;79.79;95114.96;1743218;82;20514;-61
2021/05/20 11:13:51;;;;;;;;;;;;;;;11.87;79.63;95117.59;1743413;82;20142;-61
2021/05/20 11:16:35;;;;;;;;;;;;;;;11.97;78.78;95116.38;1743444;82;20170;-62
2021/05/20 11:19:24;;;;;;;;;;;;;;;12.08;78.71;95118.67;1743273;82;20171;-61
2021/05/20 11:22:08;;;;;;;;;;;;;;;12.16;77.81;95118.43;1743496;82;20495;-62
2021/05/20 11:24:36;;;;;;;;;;;;;;;12.25;77.12;95122.11;1742315;82;20490;-61
2021/05/20 11:27:09;;;;;;;;;;;;;;;12.12;77.23;95120.33;1743253;82;20150;-62
2021/05/20 11:29:37;;;;;;;;;;;;;;;12.05;76.48;95122.75;1740555;82;20509;-62
2021/05/20 11:32:17;;;;;;;;;;;;;;;12.11;77.05;95124.72;1743114;82;20546;-61
2021/05/20 11:37:32;;;;;;;;;;;;;;;12.06;75.52;95124.47;1743338;82;20170;-62
2021/05/20 11:39:59;;;;;;;;;;;;;;;12.09;76.62;95128.33;1743394;82;20154;-61
2021/05/20 11:42:28;;;;;;;;;;;;;;;12.07;74.96;95123.11;1743238;82;20159;-62
2021/05/20 11:44:55;;;;;;;;;;;;;;;12.05;75.43;95128.04;1743255;82;20510;-62
2021/05/20 11:47:22;;;;;;;;;;;;;;;12.13;75.33;95129.51;1743283;82;20151;-62
2021/05/20 11:49:50;;;;;;;;;;;;;;;12.17;75.72;95122.79;1743510;82;20194;-61
2021/05/20 11:52:18;;;;;;;;;;;;;;;12.33;76.73;95130.66;1752975;81;20544;-61
2021/05/20 11:54:49;;;;;;;;;;;;;;;12.37;76.14;95129.62;1762847;81;20154;-61
2021/05/20 11:57:17;;;;;;;;;;;;;;;12.42;76.20;95128.14;1771464;81;20167;-62
2021/05/20 11:59:54;;;;;;;;;;;;;;;12.33;74.83;95134.62;1765856;81;20485;-62
2021/05/20 12:02:26;;;;;;;;;;;;;;;12.36;76.74;95138.95;1766074;81;20149;-61
2021/05/20 12:05:06;;;;;;;;;;;;;;;12.32;75.05;95137.73;1736753;82;20174;-62
2021/05/20 12:07:33;;;;;;;;;;;;;;;12.16;75.84;95143.09;1740581;81;20505;-61
2021/05/20 12:10:14;;;;;;;;;;;;;;;12.07;76.21;95141.62;1752456;81;20144;-61
2021/05/20 12:12:43;;;;;;;;;;;;;;;12.16;76.49;95144.41;1734195;81;20163;-61
2021/05/20 12:15:13;;;;;;;;;;;;;;;12.20;76.31;95143.41;1754236;80;20207;-64
2021/05/20 12:17:40;;;;;;;;;;;;;;;12.32;76.79;95146.09;1757850;81;20852;-64
2021/05/20 12:20:08;;;;;;;;;;;;;;;12.39;77.50;95146.31;1764969;80;20176;-65
2021/05/20 12:22:36;;;;;;;;;;;;;;;12.43;76.06;95153.24;1749877;80;20270;-62
2021/05/20 12:25:11;;;;;;;;;;;;;;;12.42;76.55;95154.61;1752683;81;20187;-63
2021/05/20 12:27:44;;;;;;;;;;;;;;;12.43;75.07;95157.67;1746032;80;21326;-62
2021/05/20 12:30:17;;;;;;;;;;;;;;;12.47;75.22;95146.95;1750462;80;20167;-62
2021/05/20 12:32:45;;;;;;;;;;;;;;;12.29;75.15;95156.78;1749304;80;20518;-63
2021/05/20 12:35:29;;;;;;;;;;;;;;;12.17;75.04;95159.81;1746114;80;20166;-62
2021/05/20 12:38:06;;;;;;;;;;;;;;;12.12;74.84;95154.23;1741131;81;20226;-62
2021/05/20 12:40:39;;;;;;;;;;;;;;;12.20;76.73;95153.13;1743092;81;20489;-62
2021/05/20 12:43:32;;;;;;;;;;;;;;;12.26;75.43;95159.53;1728556;83;20156;-62
2021/05/20 12:46:05;;;;;;;;;;;;;;;12.30;76.24;95169.12;1759585;81;20517;-62
2021/05/20 12:48:43;;;;;;;;;;;;;;;12.22;76.52;95165.83;1771556;81;20497;-62
2021/05/20 12:51:23;;;;;;;;;;;;;;;12.20;77.63;95175.62;1756917;81;20483;-62
2021/05/20 12:53:54;;;;;;;;;;;;;;;12.16;77.97;95172.64;1729256;83;20475;-63
2021/05/20 12:56:25;;;;;;;;;;;;;;;12.17;77.84;95171.29;1728973;82;20554;-61
2021/05/20 12:59:01;;;;;;;;;;;;;;;12.19;77.69;95168.58;1729329;82;20151;-61